Time;durP1;ratioP1;P1;durP2;ratioP2;P2;SDS_P1;SDS_P2;PMS_P1;PMS_P2;Temp;Humidity;BMP_temperature;BMP_pressure;BME280_temperature;BME280_humidity;BME280_pressure;Samples;Min_cycle;Max_cycle;Signal;HPM_P1;HPM_P2
2022/12/28 00:01:42;;;;;;;;;;;3.60;99.90;;;;;;4984279;28;20384;-81
2022/12/28 00:04:10;;;;;;;;;;;3.60;99.90;;;;;;5006312;28;19964;-81
2022/12/28 00:06:38;;;;;;;;;;;3.60;99.90;;;;;;5002425;28;19933;-83
2022/12/28 00:09:05;;;;;;;;;;;3.60;99.90;;;;;;5003340;28;19929;-81
2022/12/28 00:11:32;;;;;;;;;;;3.60;99.90;;;;;;4994350;28;20454;-81
2022/12/28 00:14:00;;;;;;;;;;;3.60;99.90;;;;;;4993018;28;19969;-81
2022/12/28 00:16:28;;;;;;;;;;;3.60;99.90;;;;;;5006661;28;19949;-81
2022/12/28 00:18:55;;;;;;;;;;;3.60;99.90;;;;;;4997180;28;20465;-81
2022/12/28 00:21:22;;;;;;;;;;;3.60;99.90;;;;;;5002600;28;19932;-81
2022/12/28 00:23:51;;;;;;;;;;;3.50;99.90;;;;;;4996398;28;19976;-82
2022/12/28 00:26:18;;;;;;;;;;;3.50;99.90;;;;;;4987622;28;19932;-82
2022/12/28 00:28:46;;;;;;;;;;;3.50;99.90;;;;;;4996026;28;19932;-81
2022/12/28 00:31:13;;;;;;;;;;;3.50;99.90;;;;;;4982088;28;19953;-81
2022/12/28 00:33:40;;;;;;;;;;;3.50;99.90;;;;;;4986695;28;20475;-81
2022/12/28 00:36:07;;;;;;;;;;;3.50;99.90;;;;;;4994813;28;20020;-81
2022/12/28 00:38:36;;;;;;;;;;;3.50;99.90;;;;;;4987281;28;19930;-82
2022/12/28 00:41:05;;;;;;;;;;;3.60;99.90;;;;;;4980674;28;19931;-81
2022/12/28 00:43:32;;;;;;;;;;;3.50;99.90;;;;;;4985747;28;20451;-81
2022/12/28 00:45:58;;;;;;;;;;;3.50;99.90;;;;;;4985425;28;19926;-80
2022/12/28 00:48:26;;;;;;;;;;;3.50;99.90;;;;;;5006527;28;19933;-81
2022/12/28 00:50:53;;;;;;;;;;;3.50;99.90;;;;;;4990546;28;19997;-81
2022/12/28 00:53:20;;;;;;;;;;;3.50;99.90;;;;;;4995643;28;20303;-82
2022/12/28 00:55:47;;;;;;;;;;;3.50;99.90;;;;;;4998337;28;20040;-81
2022/12/28 00:58:15;;;;;;;;;;;3.50;99.90;;;;;;5005103;28;19932;-83
2022/12/28 01:00:42;;;;;;;;;;;3.50;99.90;;;;;;4988690;28;19972;-81
2022/12/28 01:03:09;;;;;;;;;;;3.50;99.90;;;;;;4999325;28;19930;-82
2022/12/28 01:05:38;;;;;;;;;;;3.40;99.90;;;;;;4991912;28;19930;-81
2022/12/28 01:08:08;;;;;;;;;;;3.50;99.90;;;;;;4992966;28;19926;-82
2022/12/28 01:10:35;;;;;;;;;;;3.40;99.90;;;;;;5008655;28;19917;-85
2022/12/28 01:13:03;;;;;;;;;;;3.40;99.90;;;;;;5010256;28;19914;-83
2022/12/28 01:15:32;;;;;;;;;;;3.50;99.90;;;;;;4988112;28;19961;-82
2022/12/28 01:17:59;;;;;;;;;;;3.50;99.90;;;;;;4984980;28;19949;-82
2022/12/28 01:20:27;;;;;;;;;;;3.40;99.90;;;;;;4986876;28;20024;-82
2022/12/28 01:22:54;;;;;;;;;;;3.40;99.90;;;;;;4999251;28;19925;-82
2022/12/28 01:25:20;;;;;;;;;;;3.40;99.90;;;;;;4996844;28;19960;-82
2022/12/28 01:27:47;;;;;;;;;;;3.40;99.90;;;;;;5005545;28;19932;-81
2022/12/28 01:30:14;;;;;;;;;;;3.40;99.90;;;;;;5003460;28;19965;-81
2022/12/28 01:32:44;;;;;;;;;;;3.40;99.90;;;;;;4976505;28;19933;-82
2022/12/28 01:35:11;;;;;;;;;;;3.40;99.90;;;;;;5001672;28;19926;-81
2022/12/28 01:37:38;;;;;;;;;;;3.40;99.90;;;;;;4988341;28;19953;-82
2022/12/28 01:40:06;;;;;;;;;;;3.40;99.90;;;;;;5003220;28;19930;-83
2022/12/28 01:42:38;;;;;;;;;;;3.30;99.90;;;;;;4981583;28;19925;-82
2022/12/28 01:45:15;;;;;;;;;;;3.40;99.90;;;;;;4989836;28;19926;-82
2022/12/28 01:47:45;;;;;;;;;;;3.30;99.90;;;;;;4983578;28;19957;-82
2022/12/28 01:50:15;;;;;;;;;;;3.40;99.90;;;;;;4990318;28;19925;-82
2022/12/28 01:52:44;;;;;;;;;;;3.30;99.90;;;;;;4977411;28;20381;-81
2022/12/28 01:55:12;;;;;;;;;;;3.30;99.90;;;;;;4993357;28;19949;-82
2022/12/28 01:57:42;;;;;;;;;;;3.30;99.90;;;;;;4973664;28;19984;-82
2022/12/28 02:00:11;;;;;;;;;;;3.30;99.90;;;;;;4979382;28;19934;-82
2022/12/28 02:02:53;;;;;;;;;;;3.30;99.90;;;;;;4982921;28;19996;-82
2022/12/28 02:05:41;;;;;;;;;;;3.30;99.90;;;;;;4993967;28;19933;-82
2022/12/28 02:08:11;;;;;;;;;;;3.30;99.90;;;;;;4997693;28;19925;-82
2022/12/28 02:10:41;;;;;;;;;;;3.30;99.90;;;;;;4984394;28;19933;-82
2022/12/28 02:13:09;;;;;;;;;;;3.30;99.90;;;;;;5003689;28;19926;-82
2022/12/28 02:15:38;;;;;;;;;;;3.30;99.90;;;;;;4996642;28;19930;-83
2022/12/28 02:18:09;;;;;;;;;;;3.30;99.90;;;;;;4996201;28;20146;-82
2022/12/28 02:20:40;;;;;;;;;;;3.30;99.90;;;;;;4978276;28;19940;-82
2022/12/28 02:23:22;;;;;;;;;;;3.30;99.90;;;;;;4979171;28;19930;-82
2022/12/28 02:32:56;;;;;;;;;;;3.20;99.90;;;;;;4984559;28;19945;-82
2022/12/28 02:35:29;;;;;;;;;;;3.20;99.90;;;;;;4992762;28;20426;-83
2022/12/28 02:37:57;;;;;;;;;;;3.20;99.90;;;;;;4998080;28;19930;-81
2022/12/28 02:40:26;;;;;;;;;;;3.20;99.90;;;;;;5004745;28;19980;-82
2022/12/28 02:42:56;;;;;;;;;;;3.20;99.90;;;;;;4987629;28;19976;-82
2022/12/28 02:52:11;;;;;;;;;;;3.20;99.90;;;;;;4993009;28;20060;-82
2022/12/28 02:57:45;;;;;;;;;;;3.20;99.90;;;;;;4985058;28;19932;-82
2022/12/28 03:00:15;;;;;;;;;;;3.20;99.90;;;;;;4982887;28;19926;-84
2022/12/28 03:03:00;;;;;;;;;;;3.20;99.90;;;;;;4992327;28;19930;-82
2022/12/28 03:08:48;;;;;;;;;;;3.20;99.90;;;;;;4995616;28;19926;-82
2022/12/28 03:34:13;;;;;;;;;;;3.20;99.90;;;;;;4997034;28;19976;-82
2022/12/28 03:37:04;;;;;;;;;;;3.20;99.90;;;;;;4983444;28;19948;-82
2022/12/28 03:39:36;;;;;;;;;;;3.20;99.90;;;;;;4991170;28;19926;-82
2022/12/28 03:45:25;;;;;;;;;;;3.20;99.90;;;;;;4993121;28;20414;-84
2022/12/28 03:51:40;;;;;;;;;;;3.20;99.90;;;;;;5001639;28;19967;-82
2022/12/28 03:54:27;;;;;;;;;;;3.20;99.90;;;;;;4980363;28;19926;-82
2022/12/28 03:56:54;;;;;;;;;;;3.20;99.90;;;;;;4998099;28;20391;-81
2022/12/28 03:59:26;;;;;;;;;;;3.20;99.90;;;;;;4995098;28;19980;-82
2022/12/28 04:01:54;;;;;;;;;;;3.20;99.90;;;;;;4985591;28;19936;-82
2022/12/28 04:04:21;;;;;;;;;;;3.20;99.90;;;;;;4990374;28;20154;-82
2022/12/28 04:06:51;;;;;;;;;;;3.10;99.90;;;;;;4977148;28;20016;-82
2022/12/28 04:12:43;;;;;;;;;;;3.20;99.90;;;;;;4978001;28;20022;-82
2022/12/28 04:15:43;;;;;;;;;;;3.20;99.90;;;;;;4972262;28;19933;-83
2022/12/28 04:18:10;;;;;;;;;;;3.10;99.90;;;;;;4983256;28;19930;-82
2022/12/28 04:20:39;;;;;;;;;;;3.20;99.90;;;;;;4996167;28;19987;-82
2022/12/28 04:23:08;;;;;;;;;;;3.10;99.90;;;;;;4983606;28;20380;-82
2022/12/28 04:25:55;;;;;;;;;;;3.10;99.90;;;;;;4998796;28;19932;-82
2022/12/28 04:28:25;;;;;;;;;;;3.20;99.90;;;;;;4982625;28;19926;-82
2022/12/28 04:34:40;;;;;;;;;;;3.10;99.90;;;;;;4993648;28;19937;-82
2022/12/28 04:37:34;;;;;;;;;;;3.10;99.90;;;;;;4979543;28;19925;-82
2022/12/28 04:40:01;;;;;;;;;;;3.10;99.90;;;;;;4993862;28;19926;-82
2022/12/28 04:42:29;;;;;;;;;;;3.10;99.90;;;;;;4995171;28;19934;-82
2022/12/28 04:44:57;;;;;;;;;;;3.10;99.90;;;;;;4998191;28;19926;-82
2022/12/28 04:47:59;;;;;;;;;;;3.10;99.90;;;;;;4990005;28;20033;-82
2022/12/28 04:50:27;;;;;;;;;;;3.10;99.90;;;;;;5003454;28;19964;-82
2022/12/28 04:56:25;;;;;;;;;;;3.10;99.90;;;;;;5019729;28;19916;-82
2022/12/28 05:06:04;;;;;;;;;;;3.10;99.90;;;;;;4991703;28;20013;-81
2022/12/28 05:12:00;;;;;;;;;;;3.10;99.90;;;;;;5002596;28;20319;-82
2022/12/28 05:14:27;;;;;;;;;;;3.20;99.90;;;;;;4984193;28;19937;-82
2022/12/28 05:16:55;;;;;;;;;;;3.20;99.90;;;;;;4978303;28;19926;-81
2022/12/28 05:19:37;;;;;;;;;;;3.20;99.90;;;;;;4986078;28;19926;-81
2022/12/28 05:22:10;;;;;;;;;;;3.10;99.90;;;;;;5003033;28;19949;-81
2022/12/28 05:28:06;;;;;;;;;;;3.10;99.90;;;;;;5003327;28;20484;-81
2022/12/28 05:30:35;;;;;;;;;;;3.10;99.90;;;;;;4996472;28;19926;-82
2022/12/28 05:33:02;;;;;;;;;;;3.10;99.90;;;;;;4993609;28;20008;-81
2022/12/28 05:38:50;;;;;;;;;;;3.10;99.90;;;;;;4989185;28;20503;-82
2022/12/28 05:44:49;;;;;;;;;;;3.20;99.90;;;;;;4965892;28;19945;-82
2022/12/28 05:47:16;;;;;;;;;;;3.20;99.90;;;;;;4996476;28;19926;-82
2022/12/28 05:49:46;;;;;;;;;;;3.10;99.90;;;;;;4980729;28;19973;-82
2022/12/28 05:52:15;;;;;;;;;;;3.10;99.90;;;;;;4991720;28;20191;-81
2022/12/28 05:54:44;;;;;;;;;;;3.20;99.90;;;;;;5004192;28;19933;-82
2022/12/28 05:57:10;;;;;;;;;;;3.20;99.90;;;;;;5000221;28;19926;-82
2022/12/28 05:59:37;;;;;;;;;;;3.20;99.90;;;;;;4995999;28;20004;-82
2022/12/28 06:02:04;;;;;;;;;;;3.20;99.90;;;;;;4975183;28;20470;-82
2022/12/28 06:04:33;;;;;;;;;;;3.20;99.90;;;;;;4977085;28;20347;-82
2022/12/28 06:07:01;;;;;;;;;;;3.20;99.90;;;;;;4987330;28;19926;-82
2022/12/28 06:09:34;;;;;;;;;;;3.20;99.90;;;;;;4993880;28;19971;-82
2022/12/28 06:12:27;;;;;;;;;;;3.20;99.90;;;;;;4994142;28;19937;-82
2022/12/28 06:14:56;;;;;;;;;;;3.20;99.90;;;;;;4995944;28;19939;-82
2022/12/28 06:17:23;;;;;;;;;;;3.20;99.90;;;;;;4988650;28;20071;-82
2022/12/28 06:19:52;;;;;;;;;;;3.20;99.90;;;;;;4995559;28;19926;-82
2022/12/28 06:22:19;;;;;;;;;;;3.20;99.90;;;;;;5003168;28;19930;-82
2022/12/28 06:24:47;;;;;;;;;;;3.20;99.90;;;;;;4992419;28;20462;-82
2022/12/28 06:27:15;;;;;;;;;;;3.20;99.90;;;;;;4984162;28;19929;-82
2022/12/28 06:29:42;;;;;;;;;;;3.20;99.90;;;;;;4983597;28;19925;-82
2022/12/28 06:32:13;;;;;;;;;;;3.20;99.90;;;;;;4994640;28;19930;-82
2022/12/28 06:34:40;;;;;;;;;;;3.20;99.90;;;;;;5004449;28;19930;-83
2022/12/28 06:37:07;;;;;;;;;;;3.20;99.90;;;;;;4980278;28;19932;-83
2022/12/28 06:39:34;;;;;;;;;;;3.30;99.90;;;;;;4992858;28;19926;-82
2022/12/28 06:42:01;;;;;;;;;;;3.30;99.90;;;;;;4975483;28;19926;-82
2022/12/28 06:44:29;;;;;;;;;;;3.30;99.90;;;;;;5004637;28;19972;-82
2022/12/28 06:46:55;;;;;;;;;;;3.30;99.90;;;;;;4993736;28;19937;-82
2022/12/28 06:49:24;;;;;;;;;;;3.30;99.90;;;;;;5001388;28;19925;-82
2022/12/28 06:51:51;;;;;;;;;;;3.30;99.90;;;;;;4998395;28;19926;-84
2022/12/28 06:57:45;;;;;;;;;;;3.30;99.90;;;;;;4998161;28;19932;-83
2022/12/28 07:03:41;;;;;;;;;;;3.30;99.90;;;;;;4995460;28;19968;-82
2022/12/28 07:06:11;;;;;;;;;;;3.30;99.90;;;;;;4995631;28;19926;-82
2022/12/28 07:08:38;;;;;;;;;;;3.30;99.90;;;;;;5005877;28;19932;-83
2022/12/28 07:14:33;;;;;;;;;;;3.30;99.90;;;;;;4980228;28;19969;-82
2022/12/28 07:17:00;;;;;;;;;;;3.30;99.90;;;;;;4981568;28;19926;-82
2022/12/28 07:19:27;;;;;;;;;;;3.40;99.90;;;;;;4998141;28;19926;-82
2022/12/28 07:21:57;;;;;;;;;;;3.30;99.90;;;;;;4997351;28;19926;-83
2022/12/28 07:24:25;;;;;;;;;;;3.40;99.90;;;;;;4981939;28;19926;-82
2022/12/28 07:26:51;;;;;;;;;;;3.40;99.90;;;;;;5001948;28;19965;-82
2022/12/28 07:29:18;;;;;;;;;;;3.40;99.90;;;;;;5005407;28;19936;-83
2022/12/28 07:31:45;;;;;;;;;;;3.40;99.90;;;;;;5005791;28;20299;-82
2022/12/28 07:34:13;;;;;;;;;;;3.40;99.90;;;;;;4999246;28;20009;-82
2022/12/28 07:36:40;;;;;;;;;;;3.40;99.90;;;;;;5006991;28;19929;-83
2022/12/28 07:39:12;;;;;;;;;;;3.40;99.90;;;;;;4985590;28;20356;-82
2022/12/28 07:41:39;;;;;;;;;;;3.40;99.90;;;;;;4983137;28;19952;-83
2022/12/28 07:44:06;;;;;;;;;;;3.40;99.90;;;;;;5001818;28;19969;-83
2022/12/28 07:46:35;;;;;;;;;;;3.40;99.90;;;;;;4988952;28;19941;-82
2022/12/28 07:49:02;;;;;;;;;;;3.40;99.90;;;;;;5003493;28;19932;-82
2022/12/28 07:51:30;;;;;;;;;;;3.40;99.90;;;;;;4985064;28;19933;-83
2022/12/28 07:53:58;;;;;;;;;;;3.40;99.90;;;;;;5001801;28;19925;-82
2022/12/28 07:56:27;;;;;;;;;;;3.40;99.90;;;;;;4996331;28;19981;-83
2022/12/28 07:58:55;;;;;;;;;;;3.40;99.90;;;;;;4999698;28;19948;-82
2022/12/28 08:01:26;;;;;;;;;;;3.40;99.90;;;;;;4981385;28;19925;-83
2022/12/28 08:03:54;;;;;;;;;;;3.40;99.90;;;;;;4984306;28;20391;-83
2022/12/28 08:06:22;;;;;;;;;;;3.40;99.90;;;;;;4999118;28;20435;-83
2022/12/28 08:08:50;;;;;;;;;;;3.40;99.90;;;;;;5007466;28;20025;-82
2022/12/28 08:11:18;;;;;;;;;;;3.40;99.90;;;;;;5002977;28;19956;-82
2022/12/28 08:13:48;;;;;;;;;;;3.40;99.90;;;;;;4998435;28;19925;-82
2022/12/28 08:16:17;;;;;;;;;;;3.40;99.90;;;;;;4997639;28;19933;-82
2022/12/28 08:18:44;;;;;;;;;;;3.50;99.90;;;;;;5011155;28;19925;-83
2022/12/28 08:21:12;;;;;;;;;;;3.50;99.90;;;;;;5002398;28;19932;-84
2022/12/28 08:23:42;;;;;;;;;;;3.50;99.90;;;;;;4985159;28;19933;-83
2022/12/28 08:26:10;;;;;;;;;;;3.50;99.90;;;;;;4987120;28;19926;-82
2022/12/28 08:28:38;;;;;;;;;;;3.50;99.90;;;;;;5000164;28;19925;-82
2022/12/28 08:31:07;;;;;;;;;;;3.50;99.90;;;;;;4997969;28;19926;-83
2022/12/28 08:33:35;;;;;;;;;;;3.50;99.90;;;;;;5004480;28;19948;-83
2022/12/28 08:36:02;;;;;;;;;;;3.50;99.90;;;;;;5004573;28;20307;-85
2022/12/28 08:38:29;;;;;;;;;;;3.60;99.90;;;;;;5028424;28;19961;-85
2022/12/28 08:40:56;;;;;;;;;;;3.60;99.90;;;;;;5002680;28;19948;-86
2022/12/28 08:43:23;;;;;;;;;;;3.60;99.90;;;;;;4999163;28;19933;-83
2022/12/28 08:45:56;;;;;;;;;;;3.60;99.90;;;;;;4989757;28;20300;-83
2022/12/28 08:48:24;;;;;;;;;;;3.60;99.90;;;;;;4984883;28;19995;-82
2022/12/28 08:50:51;;;;;;;;;;;3.60;99.90;;;;;;4997768;28;20351;-83
2022/12/28 08:53:18;;;;;;;;;;;3.60;99.90;;;;;;5004334;28;19932;-84
2022/12/28 08:55:45;;;;;;;;;;;3.60;99.90;;;;;;4999805;28;19932;-82
2022/12/28 08:58:12;;;;;;;;;;;3.60;99.90;;;;;;5000601;28;19926;-82
2022/12/28 09:00:38;;;;;;;;;;;3.60;99.90;;;;;;4994375;28;19984;-82
2022/12/28 09:03:05;;;;;;;;;;;3.70;99.90;;;;;;4987525;28;19930;-82
2022/12/28 09:05:38;;;;;;;;;;;3.70;99.90;;;;;;5003497;28;20024;-86
2022/12/28 09:08:05;;;;;;;;;;;3.70;99.90;;;;;;4980313;28;19926;-82
2022/12/28 09:10:32;;;;;;;;;;;3.70;99.90;;;;;;5001646;28;19925;-82
2022/12/28 09:12:59;;;;;;;;;;;3.70;99.90;;;;;;5000295;28;19975;-82
2022/12/28 09:15:26;;;;;;;;;;;3.70;99.90;;;;;;4992999;28;20013;-82
2022/12/28 09:17:52;;;;;;;;;;;3.70;99.90;;;;;;4997531;28;19932;-83
2022/12/28 09:20:19;;;;;;;;;;;3.70;99.90;;;;;;4990996;28;20268;-83
2022/12/28 09:22:48;;;;;;;;;;;3.70;99.90;;;;;;4996451;28;20381;-84
2022/12/28 09:25:14;;;;;;;;;;;3.70;99.90;;;;;;4999789;28;19926;-82
2022/12/28 09:27:42;;;;;;;;;;;3.70;99.90;;;;;;4994748;28;19926;-83
2022/12/28 09:30:09;;;;;;;;;;;3.70;99.90;;;;;;4985694;28;19930;-83
2022/12/28 09:32:36;;;;;;;;;;;3.70;99.90;;;;;;4989629;28;19930;-82
2022/12/28 09:35:03;;;;;;;;;;;3.80;99.90;;;;;;5002012;28;19926;-82
2022/12/28 09:37:30;;;;;;;;;;;3.70;99.90;;;;;;4998008;28;19925;-83
2022/12/28 09:39:58;;;;;;;;;;;3.70;99.90;;;;;;4986635;28;19926;-83
2022/12/28 09:42:27;;;;;;;;;;;3.70;99.90;;;;;;4988823;28;19986;-82
2022/12/28 09:44:59;;;;;;;;;;;3.70;99.90;;;;;;4996194;28;19932;-83
2022/12/28 09:47:29;;;;;;;;;;;3.70;99.90;;;;;;4973208;28;19926;-84
2022/12/28 09:50:00;;;;;;;;;;;3.80;99.90;;;;;;4996868;28;19925;-87
2022/12/28 09:52:29;;;;;;;;;;;3.80;99.90;;;;;;4979949;28;19930;-83
2022/12/28 09:55:03;;;;;;;;;;;3.70;99.90;;;;;;4995516;28;19926;-83
2022/12/28 09:57:40;;;;;;;;;;;3.80;99.90;;;;;;4994173;28;19926;-83
2022/12/28 10:00:08;;;;;;;;;;;3.80;99.90;;;;;;5004904;28;19926;-83
2022/12/28 10:02:37;;;;;;;;;;;3.80;99.90;;;;;;4999510;28;19929;-82
2022/12/28 10:05:04;;;;;;;;;;;3.80;99.90;;;;;;5000279;28;20306;-83
2022/12/28 10:07:32;;;;;;;;;;;3.80;99.90;;;;;;4981531;28;19964;-83
2022/12/28 10:10:01;;;;;;;;;;;3.80;99.90;;;;;;4995692;28;19930;-83
2022/12/28 10:12:30;;;;;;;;;;;3.80;99.90;;;;;;4988100;28;19929;-82
2022/12/28 10:14:57;;;;;;;;;;;3.90;99.90;;;;;;4994580;28;19926;-82
2022/12/28 10:17:26;;;;;;;;;;;3.90;99.90;;;;;;4976260;28;20374;-83
2022/12/28 10:19:55;;;;;;;;;;;3.90;99.90;;;;;;4992033;28;19925;-82
2022/12/28 10:22:22;;;;;;;;;;;3.90;99.90;;;;;;4997238;28;19933;-82
2022/12/28 10:24:49;;;;;;;;;;;3.90;99.90;;;;;;4990755;28;19969;-83
2022/12/28 10:27:21;;;;;;;;;;;3.90;99.90;;;;;;4997051;28;20388;-82
2022/12/28 10:29:49;;;;;;;;;;;3.90;99.90;;;;;;4997366;28;20039;-83
2022/12/28 10:32:16;;;;;;;;;;;3.90;99.90;;;;;;4991639;28;20303;-82
2022/12/28 10:34:53;;;;;;;;;;;3.90;99.90;;;;;;4995732;28;19926;-83
2022/12/28 10:37:20;;;;;;;;;;;3.90;99.90;;;;;;4994785;28;20403;-85
2022/12/28 10:39:49;;;;;;;;;;;4.00;99.90;;;;;;4993147;28;19926;-82
2022/12/28 10:42:21;;;;;;;;;;;4.00;99.90;;;;;;4995213;28;19932;-83
2022/12/28 10:44:49;;;;;;;;;;;4.00;99.90;;;;;;4980193;28;20439;-86
2022/12/28 10:47:17;;;;;;;;;;;4.00;99.90;;;;;;4992105;28;20052;-82
2022/12/28 10:49:49;;;;;;;;;;;4.00;99.90;;;;;;5002730;28;19965;-85
2022/12/28 10:52:18;;;;;;;;;;;4.00;99.90;;;;;;4997336;28;19933;-83
2022/12/28 10:54:45;;;;;;;;;;;4.00;99.90;;;;;;4999234;28;20384;-83
2022/12/28 10:57:16;;;;;;;;;;;4.00;99.90;;;;;;5002684;28;19925;-82
2022/12/28 10:59:45;;;;;;;;;;;4.10;99.90;;;;;;5007790;28;20021;-85
2022/12/28 11:02:23;;;;;;;;;;;4.10;99.90;;;;;;4984945;28;19925;-83
2022/12/28 11:04:54;;;;;;;;;;;4.10;99.90;;;;;;4992144;28;20020;-85
2022/12/28 11:07:28;;;;;;;;;;;4.10;99.90;;;;;;5004476;28;20366;-83
2022/12/28 11:10:13;;;;;;;;;;;4.10;99.90;;;;;;5003563;28;19992;-83
2022/12/28 11:12:41;;;;;;;;;;;4.10;99.90;;;;;;5002416;28;19933;-83
2022/12/28 11:15:13;;;;;;;;;;;4.10;99.90;;;;;;4990732;28;19932;-83
2022/12/28 11:17:40;;;;;;;;;;;4.10;99.90;;;;;;5008168;28;19968;-83
2022/12/28 11:20:08;;;;;;;;;;;4.10;99.90;;;;;;5005110;28;19926;-84
2022/12/28 11:22:35;;;;;;;;;;;4.20;99.90;;;;;;5001233;28;20454;-83
2022/12/28 11:25:02;;;;;;;;;;;4.20;99.90;;;;;;4999863;28;19930;-82
2022/12/28 11:27:29;;;;;;;;;;;4.20;99.90;;;;;;4988612;28;19969;-83
2022/12/28 11:29:56;;;;;;;;;;;4.20;99.90;;;;;;4986373;28;19932;-83
2022/12/28 11:32:25;;;;;;;;;;;4.30;99.90;;;;;;5002504;28;19929;-85
2022/12/28 11:34:54;;;;;;;;;;;4.30;99.90;;;;;;4989889;28;19934;-83
2022/12/28 11:37:21;;;;;;;;;;;4.30;99.90;;;;;;5004069;28;20005;-84
2022/12/28 11:39:48;;;;;;;;;;;4.30;99.90;;;;;;5004530;28;19976;-83
2022/12/28 11:42:30;;;;;;;;;;;4.30;99.90;;;;;;5016436;28;19980;-85
2022/12/28 11:44:56;;;;;;;;;;;4.30;99.90;;;;;;4985991;28;19988;-83
2022/12/28 11:47:31;;;;;;;;;;;4.40;99.90;;;;;;4989328;28;19973;-83
2022/12/28 11:50:17;;;;;;;;;;;4.40;99.90;;;;;;4995652;28;19932;-83
2022/12/28 11:52:47;;;;;;;;;;;4.40;99.90;;;;;;5002333;28;19925;-83
2022/12/28 11:55:35;;;;;;;;;;;4.40;99.90;;;;;;4996923;28;19930;-83
2022/12/28 11:58:17;;;;;;;;;;;4.40;99.90;;;;;;5000792;28;20462;-82
2022/12/28 12:00:48;;;;;;;;;;;4.40;99.90;;;;;;5003376;28;19930;-83
2022/12/28 12:03:16;;;;;;;;;;;4.40;99.90;;;;;;4999445;28;20423;-82
2022/12/28 12:05:50;;;;;;;;;;;4.40;99.90;;;;;;4998080;28;20017;-82
2022/12/28 12:08:35;;;;;;;;;;;4.50;99.90;;;;;;5001582;28;19929;-85
2022/12/28 12:11:27;;;;;;;;;;;4.50;99.90;;;;;;4986388;28;19926;-83
2022/12/28 12:13:54;;;;;;;;;;;4.50;99.90;;;;;;4998903;28;20299;-84
2022/12/28 12:16:24;;;;;;;;;;;4.50;99.90;;;;;;5001809;28;20032;-83
2022/12/28 12:18:54;;;;;;;;;;;4.50;99.90;;;;;;4998314;28;19988;-83
2022/12/28 12:21:24;;;;;;;;;;;4.50;99.90;;;;;;4993000;28;19981;-84
2022/12/28 12:23:54;;;;;;;;;;;4.50;99.90;;;;;;5006173;28;19925;-84
2022/12/28 12:26:26;;;;;;;;;;;4.50;99.90;;;;;;5006308;28;19926;-85
2022/12/28 12:28:56;;;;;;;;;;;4.50;99.90;;;;;;5011151;28;19926;-83
2022/12/28 12:31:25;;;;;;;;;;;4.50;99.90;;;;;;4978348;28;20414;-81
2022/12/28 12:33:56;;;;;;;;;;;4.50;99.90;;;;;;5001291;28;20463;-81
2022/12/28 12:36:34;;;;;;;;;;;4.50;99.90;;;;;;4998468;28;19926;-83
2022/12/28 12:39:16;;;;;;;;;;;4.50;99.90;;;;;;4979058;28;19937;-81
2022/12/28 12:41:48;;;;;;;;;;;4.50;99.90;;;;;;5002980;28;19926;-82
2022/12/28 12:44:19;;;;;;;;;;;4.50;99.90;;;;;;5001712;28;19925;-83
2022/12/28 12:46:55;;;;;;;;;;;4.60;99.90;;;;;;4995967;28;19930;-88
2022/12/28 12:49:33;;;;;;;;;;;4.50;99.90;;;;;;4996679;28;19929;-81
2022/12/28 12:52:02;;;;;;;;;;;4.60;99.90;;;;;;5006611;28;19926;-82
2022/12/28 12:54:35;;;;;;;;;;;4.60;99.90;;;;;;4994672;28;19926;-85
2022/12/28 12:57:05;;;;;;;;;;;4.60;99.90;;;;;;4992928;28;19972;-82
2022/12/28 12:59:49;;;;;;;;;;;4.60;99.90;;;;;;4990758;28;19938;-83
2022/12/28 13:02:25;;;;;;;;;;;4.60;99.90;;;;;;4989921;28;19926;-84
2022/12/28 13:04:53;;;;;;;;;;;4.60;99.90;;;;;;4996683;28;19972;-83
2022/12/28 13:07:22;;;;;;;;;;;4.70;99.90;;;;;;4997986;28;20443;-82
2022/12/28 13:09:49;;;;;;;;;;;4.60;99.90;;;;;;5003181;28;19960;-85
2022/12/28 13:12:17;;;;;;;;;;;4.70;99.90;;;;;;5002546;28;19948;-84
2022/12/28 13:14:44;;;;;;;;;;;4.70;99.90;;;;;;4980881;28;20317;-84
2022/12/28 13:17:15;;;;;;;;;;;4.70;99.90;;;;;;4986653;28;19961;-85
2022/12/28 13:19:42;;;;;;;;;;;4.70;99.90;;;;;;4987727;28;19948;-84
2022/12/28 13:22:25;;;;;;;;;;;4.70;99.90;;;;;;4972803;28;19926;-82
2022/12/28 13:24:52;;;;;;;;;;;4.80;99.90;;;;;;4996147;28;20414;-83
2022/12/28 13:27:20;;;;;;;;;;;4.80;99.90;;;;;;4996347;28;19980;-83
2022/12/28 13:29:51;;;;;;;;;;;4.80;99.90;;;;;;4993648;28;19934;-83
2022/12/28 13:32:25;;;;;;;;;;;4.80;99.90;;;;;;4996497;28;19933;-88
2022/12/28 13:34:51;;;;;;;;;;;4.80;99.90;;;;;;4981047;28;19929;-83
2022/12/28 13:37:20;;;;;;;;;;;4.90;99.90;;;;;;4995149;28;20482;-83
2022/12/28 13:39:47;;;;;;;;;;;4.90;99.90;;;;;;5003915;28;19925;-83
2022/12/28 13:42:16;;;;;;;;;;;5.00;99.90;;;;;;5002879;28;19926;-87
2022/12/28 13:44:44;;;;;;;;;;;5.00;99.90;;;;;;5000689;28;19929;-83
2022/12/28 13:47:14;;;;;;;;;;;5.00;99.90;;;;;;4989446;28;20032;-83
2022/12/28 13:49:43;;;;;;;;;;;5.00;99.90;;;;;;4996657;28;19930;-87
2022/12/28 13:52:12;;;;;;;;;;;5.00;99.90;;;;;;4980281;28;20531;-83
2022/12/28 13:54:40;;;;;;;;;;;5.00;99.90;;;;;;4989229;28;19925;-85
2022/12/28 13:57:07;;;;;;;;;;;5.00;99.90;;;;;;4976139;28;19926;-86
2022/12/28 13:59:34;;;;;;;;;;;5.10;99.90;;;;;;5000970;28;20451;-84
2022/12/28 14:02:02;;;;;;;;;;;5.10;99.90;;;;;;4998927;28;19926;-85
2022/12/28 14:04:29;;;;;;;;;;;5.10;99.90;;;;;;5001725;28;19925;-83
2022/12/28 14:06:55;;;;;;;;;;;5.10;99.90;;;;;;4999114;28;19973;-83
2022/12/28 14:09:22;;;;;;;;;;;5.10;99.90;;;;;;5001214;28;19979;-83
2022/12/28 14:11:51;;;;;;;;;;;5.10;99.90;;;;;;4995596;28;19977;-84
2022/12/28 14:14:18;;;;;;;;;;;5.10;99.90;;;;;;4996317;28;21040;-83
2022/12/28 14:16:45;;;;;;;;;;;5.10;99.90;;;;;;5001967;28;20009;-83
2022/12/28 14:19:12;;;;;;;;;;;5.10;99.90;;;;;;4999289;28;19932;-83
2022/12/28 14:21:45;;;;;;;;;;;5.10;99.90;;;;;;4985812;28;20319;-86
2022/12/28 14:24:13;;;;;;;;;;;5.10;99.90;;;;;;4995418;28;19926;-83
2022/12/28 14:26:44;;;;;;;;;;;5.10;99.90;;;;;;4981590;28;19980;-84
2022/12/28 14:29:13;;;;;;;;;;;5.10;99.90;;;;;;4999002;28;19932;-83
2022/12/28 14:31:40;;;;;;;;;;;5.10;99.90;;;;;;4995216;28;19957;-82
2022/12/28 14:34:19;;;;;;;;;;;5.10;99.90;;;;;;4998831;28;20021;-85
2022/12/28 14:36:48;;;;;;;;;;;5.10;99.90;;;;;;4993724;28;20419;-86
2022/12/28 14:39:21;;;;;;;;;;;5.10;99.90;;;;;;4994874;28;20008;-83
2022/12/28 14:41:47;;;;;;;;;;;5.10;99.90;;;;;;4996188;28;19933;-83
2022/12/28 14:44:17;;;;;;;;;;;5.10;99.90;;;;;;5002067;28;21248;-83
2022/12/28 14:46:44;;;;;;;;;;;5.20;99.90;;;;;;5004422;28;20011;-84
2022/12/28 14:49:29;;;;;;;;;;;5.10;99.90;;;;;;4991044;28;20865;-83
2022/12/28 14:51:56;;;;;;;;;;;5.20;99.90;;;;;;4994314;28;20058;-87
2022/12/28 14:54:24;;;;;;;;;;;5.10;99.90;;;;;;4996290;28;20013;-83
2022/12/28 14:56:53;;;;;;;;;;;5.20;99.90;;;;;;4999082;28;19925;-83
2022/12/28 14:59:24;;;;;;;;;;;5.20;99.90;;;;;;4993439;28;19976;-84
2022/12/28 15:01:51;;;;;;;;;;;5.20;99.90;;;;;;4993971;28;19930;-83
2022/12/28 15:04:26;;;;;;;;;;;5.20;99.90;;;;;;4982543;28;19933;-83
2022/12/28 15:06:53;;;;;;;;;;;5.20;99.90;;;;;;4981061;28;19929;-82
2022/12/28 15:09:20;;;;;;;;;;;5.20;99.90;;;;;;4992293;28;19930;-83
2022/12/28 15:11:47;;;;;;;;;;;5.20;99.90;;;;;;4990839;28;20369;-83
2022/12/28 15:14:14;;;;;;;;;;;5.20;99.90;;;;;;4983295;28;19929;-84
2022/12/28 15:16:42;;;;;;;;;;;5.20;99.90;;;;;;4994597;28;19977;-84
2022/12/28 15:19:08;;;;;;;;;;;5.20;99.90;;;;;;4981808;28;19925;-83
2022/12/28 15:21:35;;;;;;;;;;;5.20;99.90;;;;;;4993815;28;19926;-87
2022/12/28 15:24:02;;;;;;;;;;;5.20;99.90;;;;;;4980741;28;19926;-82
2022/12/28 15:26:29;;;;;;;;;;;5.20;99.90;;;;;;4978169;28;20391;-86
2022/12/28 15:28:56;;;;;;;;;;;5.20;99.90;;;;;;4990340;28;19926;-82
2022/12/28 15:31:23;;;;;;;;;;;5.20;99.90;;;;;;4990537;28;19940;-83
2022/12/28 15:33:51;;;;;;;;;;;5.20;99.90;;;;;;4977814;28;19968;-88
2022/12/28 15:36:18;;;;;;;;;;;5.20;99.90;;;;;;4983013;28;20431;-83
2022/12/28 15:38:46;;;;;;;;;;;5.20;99.90;;;;;;5007807;28;19975;-86
2022/12/28 15:43:53;;;;;;;;;;;5.20;99.90;;;;;;5000579;28;19921;-82
2022/12/28 15:46:20;;;;;;;;;;;5.20;99.90;;;;;;4985691;28;19987;-83
2022/12/28 15:48:47;;;;;;;;;;;5.30;99.90;;;;;;5001275;28;19925;-82
2022/12/28 15:51:15;;;;;;;;;;;5.20;99.90;;;;;;4996248;28;19930;-85
2022/12/28 15:53:42;;;;;;;;;;;5.20;99.90;;;;;;4992705;28;20032;-82
2022/12/28 15:56:19;;;;;;;;;;;5.20;99.90;;;;;;4997633;28;20355;-82
2022/12/28 15:58:46;;;;;;;;;;;5.20;99.90;;;;;;4981923;28;19926;-83
2022/12/28 16:01:12;;;;;;;;;;;5.20;99.90;;;;;;4986909;28;20020;-83
2022/12/28 16:03:39;;;;;;;;;;;5.20;99.90;;;;;;4998739;28;19953;-83
2022/12/28 16:06:06;;;;;;;;;;;5.20;99.90;;;;;;4995754;28;19936;-86
2022/12/28 16:08:34;;;;;;;;;;;5.20;99.90;;;;;;5004398;28;19944;-82
2022/12/28 16:11:07;;;;;;;;;;;5.20;99.90;;;;;;4995015;28;19953;-83
2022/12/28 16:13:34;;;;;;;;;;;5.20;99.90;;;;;;4999785;28;19957;-83
2022/12/28 16:16:03;;;;;;;;;;;5.20;99.90;;;;;;5005432;28;19934;-84
2022/12/28 16:18:30;;;;;;;;;;;5.20;99.90;;;;;;5009277;28;19926;-89
2022/12/28 16:20:58;;;;;;;;;;;5.20;99.90;;;;;;4996109;28;19957;-83